Terminal Aerodrome Forecast
Issued by NWS

Home | Current Version | Previous Version | Text Only | Print | Product List | Glossary On
Versions: 1 2 3 4 5 6 7 8 9 10 11 12 13 14 15 16 17 18 19 20 21 22
000
FTUS46 KMTR 011122
TAFMRY
TAF
KMRY 011122Z 0112/0212 25003KT P6SM OVC008
     FM011800 26006KT P6SM SCT012
     FM012000 26010KT P6SM SCT250
     FM020200 25005KT P6SM SCT015
     FM020400 25004KT P6SM OVC012=

USA.gov is the U.S. government's official web portal to all federal, state and local government web resources and services.